sensor_id;sensor_type;location;lat;lon;timestamp;pressure;altitude;pressure_sealevel;temperature;humidity
27358;BME280;14831;50.474;7.616;2022-07-23T00:04:53;98090;;;17.1;99.9
27358;BME280;14831;50.474;7.616;2022-07-23T00:09:53;98100;;;17.1;99.9
27358;BME280;14831;50.474;7.616;2022-07-23T00:14:53;98110;;;17.2;99.9
27358;BME280;14831;50.474;7.616;2022-07-23T00:19:53;98100;;;17.2;99.9
27358;BME280;14831;50.474;7.616;2022-07-23T00:24:53;98110;;;17.2;99.9
27358;BME280;14831;50.474;7.616;2022-07-23T00:29:53;98110;;;17.2;99.9
27358;BME280;14831;50.474;7.616;2022-07-23T00:34:53;98110;;;17.1;99.9
27358;BME280;14831;50.474;7.616;2022-07-23T00:39:53;98120;;;17.0;99.9
27358;BME280;14831;50.474;7.616;2022-07-23T00:44:53;98120;;;17.0;99.9
27358;BME280;14831;50.474;7.616;2022-07-23T00:49:53;98100;;;16.9;99.9
27358;BME280;14831;50.474;7.616;2022-07-23T00:54:53;98100;;;16.9;99.9
27358;BME280;14831;50.474;7.616;2022-07-23T00:59:54;98100;;;16.9;99.9
27358;BME280;14831;50.474;7.616;2022-07-23T01:04:53;98100;;;16.8;99.9
27358;BME280;14831;50.474;7.616;2022-07-23T01:09:53;98110;;;16.7;99.9
27358;BME280;14831;50.474;7.616;2022-07-23T01:14:53;98110;;;16.7;99.9
27358;BME280;14831;50.474;7.616;2022-07-23T01:19:53;98090;;;16.7;99.9
27358;BME280;14831;50.474;7.616;2022-07-23T01:24:53;98090;;;16.6;99.9
27358;BME280;14831;50.474;7.616;2022-07-23T01:29:54;98100;;;16.6;99.9
27358;BME280;14831;50.474;7.616;2022-07-23T01:34:53;98090;;;16.6;99.9
27358;BME280;14831;50.474;7.616;2022-07-23T01:39:53;98080;;;16.5;99.9
27358;BME280;14831;50.474;7.616;2022-07-23T01:44:53;98080;;;16.4;99.9
27358;BME280;14831;50.474;7.616;2022-07-23T01:49:53;98080;;;16.3;99.9
27358;BME280;14831;50.474;7.616;2022-07-23T01:54:53;98070;;;16.4;99.9
27358;BME280;14831;50.474;7.616;2022-07-23T01:59:53;98080;;;16.3;99.9
27358;BME280;14831;50.474;7.616;2022-07-23T02:04:53;98070;;;16.3;99.9
27358;BME280;14831;50.474;7.616;2022-07-23T02:09:53;98070;;;16.3;99.9
27358;BME280;14831;50.474;7.616;2022-07-23T02:14:53;98070;;;16.3;99.9
27358;BME280;14831;50.474;7.616;2022-07-23T02:19:53;98070;;;16.3;99.9
27358;BME280;14831;50.474;7.616;2022-07-23T02:24:54;98070;;;16.3;99.9
27358;BME280;14831;50.474;7.616;2022-07-23T02:29:53;98070;;;16.3;99.9
27358;BME280;14831;50.474;7.616;2022-07-23T02:34:53;98070;;;16.3;99.9
27358;BME280;14831;50.474;7.616;2022-07-23T02:39:53;98070;;;16.3;99.9
27358;BME280;14831;50.474;7.616;2022-07-23T02:44:53;98060;;;16.2;99.9
27358;BME280;14831;50.474;7.616;2022-07-23T02:49:53;98050;;;16.2;99.9
27358;BME280;14831;50.474;7.616;2022-07-23T02:54:53;98070;;;16.1;99.9
27358;BME280;14831;50.474;7.616;2022-07-23T02:59:53;98070;;;16.1;99.9
27358;BME280;14831;50.474;7.616;2022-07-23T03:04:53;98070;;;16.2;99.9
27358;BME280;14831;50.474;7.616;2022-07-23T03:09:53;98080;;;16.1;99.9
27358;BME280;14831;50.474;7.616;2022-07-23T03:14:53;98080;;;16.1;99.9
27358;BME280;14831;50.474;7.616;2022-07-23T03:19:53;98070;;;16.1;99.9
27358;BME280;14831;50.474;7.616;2022-07-23T03:24:53;98080;;;15.9;99.9
27358;BME280;14831;50.474;7.616;2022-07-23T03:29:54;98080;;;15.7;99.9
27358;BME280;14831;50.474;7.616;2022-07-23T03:34:53;98080;;;15.6;99.9
27358;BME280;14831;50.474;7.616;2022-07-23T03:39:53;98080;;;15.5;99.9
27358;BME280;14831;50.474;7.616;2022-07-23T03:44:53;98080;;;15.5;99.9
27358;BME280;14831;50.474;7.616;2022-07-23T03:49:53;98100;;;15.4;99.9
27358;BME280;14831;50.474;7.616;2022-07-23T03:54:53;98100;;;15.5;99.9
27358;BME280;14831;50.474;7.616;2022-07-23T03:59:53;98110;;;15.6;99.9
27358;BME280;14831;50.474;7.616;2022-07-23T04:04:53;98110;;;15.7;99.9
27358;BME280;14831;50.474;7.616;2022-07-23T04:09:53;98120;;;15.7;99.9
27358;BME280;14831;50.474;7.616;2022-07-23T04:14:53;98120;;;15.7;99.9
27358;BME280;14831;50.474;7.616;2022-07-23T04:19:53;98130;;;15.8;99.9
27358;BME280;14831;50.474;7.616;2022-07-23T04:24:53;98120;;;15.8;99.9
27358;BME280;14831;50.474;7.616;2022-07-23T04:29:53;98120;;;15.8;99.9
27358;BME280;14831;50.474;7.616;2022-07-23T04:34:53;98120;;;15.7;99.9
27358;BME280;14831;50.474;7.616;2022-07-23T04:39:53;98120;;;15.8;99.9
27358;BME280;14831;50.474;7.616;2022-07-23T04:44:53;98130;;;15.8;99.9
27358;BME280;14831;50.474;7.616;2022-07-23T04:49:53;98130;;;15.9;99.9
27358;BME280;14831;50.474;7.616;2022-07-23T04:54:53;98120;;;15.9;99.9
27358;BME280;14831;50.474;7.616;2022-07-23T04:59:53;98130;;;15.9;99.9
27358;BME280;14831;50.474;7.616;2022-07-23T05:04:53;98140;;;16.0;99.9
27358;BME280;14831;50.474;7.616;2022-07-23T05:09:53;98140;;;16.1;99.9
27358;BME280;14831;50.474;7.616;2022-07-23T05:14:53;98140;;;16.2;99.9
27358;BME280;14831;50.474;7.616;2022-07-23T05:19:53;98140;;;16.2;99.9
27358;BME280;14831;50.474;7.616;2022-07-23T05:24:53;98130;;;16.3;99.9
27358;BME280;14831;50.474;7.616;2022-07-23T05:29:53;98120;;;16.4;99.9
27358;BME280;14831;50.474;7.616;2022-07-23T05:34:53;98120;;;16.7;99.9
27358;BME280;14831;50.474;7.616;2022-07-23T05:39:53;98120;;;16.7;99.9
27358;BME280;14831;50.474;7.616;2022-07-23T05:44:53;98130;;;17.0;99.9
27358;BME280;14831;50.474;7.616;2022-07-23T05:49:53;98140;;;16.9;99.9
27358;BME280;14831;50.474;7.616;2022-07-23T05:54:53;98140;;;17.0;99.9
27358;BME280;14831;50.474;7.616;2022-07-23T05:59:53;98160;;;17.1;99.9
27358;BME280;14831;50.474;7.616;2022-07-23T06:04:53;98160;;;17.1;99.9
27358;BME280;14831;50.474;7.616;2022-07-23T06:09:53;98160;;;17.2;99.9
27358;BME280;14831;50.474;7.616;2022-07-23T06:14:53;98180;;;17.1;99.9
27358;BME280;14831;50.474;7.616;2022-07-23T06:19:53;98190;;;17.1;99.9
27358;BME280;14831;50.474;7.616;2022-07-23T06:24:53;98180;;;17.1;99.9
27358;BME280;14831;50.474;7.616;2022-07-23T06:29:53;98190;;;17.3;99.9
27358;BME280;14831;50.474;7.616;2022-07-23T06:34:53;98180;;;17.6;99.9
27358;BME280;14831;50.474;7.616;2022-07-23T06:39:53;98180;;;17.6;99.9
27358;BME280;14831;50.474;7.616;2022-07-23T06:44:53;98190;;;17.9;99.9
27358;BME280;14831;50.474;7.616;2022-07-23T06:49:53;98190;;;18.2;99.9
27358;BME280;14831;50.474;7.616;2022-07-23T06:54:53;98200;;;17.7;99.9
27358;BME280;14831;50.474;7.616;2022-07-23T06:59:53;98200;;;17.8;99.9
27358;BME280;14831;50.474;7.616;2022-07-23T07:04:53;98200;;;17.7;99.9
27358;BME280;14831;50.474;7.616;2022-07-23T07:09:53;98210;;;17.7;99.9
27358;BME280;14831;50.474;7.616;2022-07-23T07:14:53;98220;;;17.9;99.9
27358;BME280;14831;50.474;7.616;2022-07-23T07:19:53;98210;;;18.3;99.9
27358;BME280;14831;50.474;7.616;2022-07-23T07:24:53;98220;;;18.4;99.9
27358;BME280;14831;50.474;7.616;2022-07-23T07:29:54;98220;;;18.9;99.9
27358;BME280;14831;50.474;7.616;2022-07-23T07:34:53;98230;;;19.2;99.9
27358;BME280;14831;50.474;7.616;2022-07-23T07:39:53;98230;;;18.8;99.9
27358;BME280;14831;50.474;7.616;2022-07-23T07:44:53;98230;;;18.6;99.9
27358;BME280;14831;50.474;7.616;2022-07-23T07:49:53;98240;;;19.3;99.9
27358;BME280;14831;50.474;7.616;2022-07-23T07:54:53;98240;;;19.2;99.9
27358;BME280;14831;50.474;7.616;2022-07-23T07:59:53;98240;;;19.0;99.9
27358;BME280;14831;50.474;7.616;2022-07-23T08:04:53;98240;;;19.6;99.9
27358;BME280;14831;50.474;7.616;2022-07-23T08:09:53;98250;;;19.4;99.9
27358;BME280;14831;50.474;7.616;2022-07-23T08:14:53;98250;;;19.3;99.9
27358;BME280;14831;50.474;7.616;2022-07-23T08:19:53;98250;;;19.8;99.9
27358;BME280;14831;50.474;7.616;2022-07-23T08:24:53;98250;;;20.0;99.9
27358;BME280;14831;50.474;7.616;2022-07-23T08:29:53;98240;;;19.9;99.9
27358;BME280;14831;50.474;7.616;2022-07-23T08:34:53;98240;;;20.0;99.9
27358;BME280;14831;50.474;7.616;2022-07-23T08:39:53;98250;;;20.2;99.9
27358;BME280;14831;50.474;7.616;2022-07-23T08:44:53;98250;;;20.3;99.9
27358;BME280;14831;50.474;7.616;2022-07-23T08:49:53;98250;;;20.5;99.9
27358;BME280;14831;50.474;7.616;2022-07-23T08:54:53;98250;;;20.2;99.9
27358;BME280;14831;50.474;7.616;2022-07-23T08:59:53;98260;;;20.8;99.9
27358;BME280;14831;50.474;7.616;2022-07-23T09:04:53;98260;;;21.0;99.9
27358;BME280;14831;50.474;7.616;2022-07-23T09:10:04;98260;;;21.1;99.9
27358;BME280;14831;50.474;7.616;2022-07-23T09:14:53;98250;;;20.7;99.9
27358;BME280;14831;50.474;7.616;2022-07-23T09:19:54;98250;;;21.3;99.6
27358;BME280;14831;50.474;7.616;2022-07-23T09:25:09;98240;;;21.1;99.2
27358;BME280;14831;50.474;7.616;2022-07-23T09:29:55;98240;;;21.2;98.8
27358;BME280;14831;50.474;7.616;2022-07-23T09:34:53;98250;;;21.4;98.1
27358;BME280;14831;50.474;7.616;2022-07-23T09:39:53;98250;;;22.0;96.8
27358;BME280;14831;50.474;7.616;2022-07-23T09:44:54;98250;;;21.5;97.1
27358;BME280;14831;50.474;7.616;2022-07-23T09:49:59;98250;;;22.4;96.3
27358;BME280;14831;50.474;7.616;2022-07-23T09:54:57;98250;;;22.4;97.3
27358;BME280;14831;50.474;7.616;2022-07-23T09:59:53;98250;;;22.7;96.0
27358;BME280;14831;50.474;7.616;2022-07-23T10:04:53;98250;;;22.0;94.2
27358;BME280;14831;50.474;7.616;2022-07-23T10:09:53;98250;;;22.2;95.8
27358;BME280;14831;50.474;7.616;2022-07-23T10:14:53;98250;;;22.1;95.5
27358;BME280;14831;50.474;7.616;2022-07-23T10:19:53;98250;;;23.1;96.8
27358;BME280;14831;50.474;7.616;2022-07-23T10:24:56;98240;;;23.3;93.9
27358;BME280;14831;50.474;7.616;2022-07-23T10:29:55;98240;;;22.8;95.0
27358;BME280;14831;50.474;7.616;2022-07-23T10:34:55;98230;;;23.5;93.1
27358;BME280;14831;50.474;7.616;2022-07-23T10:40:08;98230;;;23.3;92.6
27358;BME280;14831;50.474;7.616;2022-07-23T10:44:53;98230;;;23.2;92.9
27358;BME280;14831;50.474;7.616;2022-07-23T10:49:54;98220;;;22.9;95.1
27358;BME280;14831;50.474;7.616;2022-07-23T10:54:54;98230;;;22.7;95.5
27358;BME280;14831;50.474;7.616;2022-07-23T11:00:25;98220;;;23.3;93.6
27358;BME280;14831;50.474;7.616;2022-07-23T11:04:53;98210;;;23.5;93.4
27358;BME280;14831;50.474;7.616;2022-07-23T11:09:53;98220;;;23.3;93.1
27358;BME280;14831;50.474;7.616;2022-07-23T11:14:57;98220;;;23.1;93.1
27358;BME280;14831;50.474;7.616;2022-07-23T11:20:25;98220;;;22.9;93.7
27358;BME280;14831;50.474;7.616;2022-07-23T11:24:53;98210;;;22.9;93.6
27358;BME280;14831;50.474;7.616;2022-07-23T11:29:53;98210;;;23.6;94.0
27358;BME280;14831;50.474;7.616;2022-07-23T11:34:53;98210;;;23.3;93.6
27358;BME280;14831;50.474;7.616;2022-07-23T11:39:53;98200;;;23.6;94.1
27358;BME280;14831;50.474;7.616;2022-07-23T11:44:53;98200;;;23.9;92.6
27358;BME280;14831;50.474;7.616;2022-07-23T11:49:54;98210;;;24.2;92.1
27358;BME280;14831;50.474;7.616;2022-07-23T11:54:54;98200;;;24.0;91.2
27358;BME280;14831;50.474;7.616;2022-07-23T11:59:54;98200;;;24.2;92.5
27358;BME280;14831;50.474;7.616;2022-07-23T12:04:53;98200;;;24.8;91.7
27358;BME280;14831;50.474;7.616;2022-07-23T12:09:53;98200;;;24.6;90.8
27358;BME280;14831;50.474;7.616;2022-07-23T12:14:54;98190;;;23.6;91.5
27358;BME280;14831;50.474;7.616;2022-07-23T12:19:54;98200;;;23.9;91.4
27358;BME280;14831;50.474;7.616;2022-07-23T12:24:55;98190;;;24.0;91.0
27358;BME280;14831;50.474;7.616;2022-07-23T12:29:53;98200;;;24.8;90.6
27358;BME280;14831;50.474;7.616;2022-07-23T12:35:02;98200;;;25.1;91.0
27358;BME280;14831;50.474;7.616;2022-07-23T12:39:53;98200;;;24.9;91.3
27358;BME280;14831;50.474;7.616;2022-07-23T12:45:09;98190;;;24.8;90.9
27358;BME280;14831;50.474;7.616;2022-07-23T12:49:53;98200;;;25.2;90.0
27358;BME280;14831;50.474;7.616;2022-07-23T12:54:53;98200;;;24.1;90.6
27358;BME280;14831;50.474;7.616;2022-07-23T12:59:53;98200;;;23.8;90.7
27358;BME280;14831;50.474;7.616;2022-07-23T13:04:53;98190;;;24.3;91.5
27358;BME280;14831;50.474;7.616;2022-07-23T13:09:53;98200;;;24.7;91.4
27358;BME280;14831;50.474;7.616;2022-07-23T13:14:53;98190;;;25.7;89.1
27358;BME280;14831;50.474;7.616;2022-07-23T13:19:53;98200;;;25.7;90.2
27358;BME280;14831;50.474;7.616;2022-07-23T13:24:53;98200;;;25.1;89.5
27358;BME280;14831;50.474;7.616;2022-07-23T13:29:53;98200;;;24.5;90.6
27358;BME280;14831;50.474;7.616;2022-07-23T13:34:53;98200;;;24.5;90.8
27358;BME280;14831;50.474;7.616;2022-07-23T13:39:53;98200;;;24.4;91.0
27358;BME280;14831;50.474;7.616;2022-07-23T13:44:53;98190;;;24.5;91.3
27358;BME280;14831;50.474;7.616;2022-07-23T13:49:53;98190;;;25.0;90.7
27358;BME280;14831;50.474;7.616;2022-07-23T13:54:53;98190;;;25.3;90.9
27358;BME280;14831;50.474;7.616;2022-07-23T13:59:53;98190;;;25.2;90.1
27358;BME280;14831;50.474;7.616;2022-07-23T14:04:53;98180;;;25.2;91.8
27358;BME280;14831;50.474;7.616;2022-07-23T14:09:53;98190;;;25.1;90.0
27358;BME280;14831;50.474;7.616;2022-07-23T14:14:53;98190;;;24.6;90.1
27358;BME280;14831;50.474;7.616;2022-07-23T14:19:53;98200;;;25.0;91.2
27358;BME280;14831;50.474;7.616;2022-07-23T14:24:53;98190;;;24.8;90.7
27358;BME280;14831;50.474;7.616;2022-07-23T14:29:53;98200;;;24.8;90.1
27358;BME280;14831;50.474;7.616;2022-07-23T14:34:53;98190;;;24.5;90.2
27358;BME280;14831;50.474;7.616;2022-07-23T14:39:53;98190;;;24.8;90.3
27358;BME280;14831;50.474;7.616;2022-07-23T14:44:53;98180;;;24.6;90.5
27358;BME280;14831;50.474;7.616;2022-07-23T14:49:53;98180;;;24.4;90.7
27358;BME280;14831;50.474;7.616;2022-07-23T14:54:53;98170;;;24.7;90.5
27358;BME280;14831;50.474;7.616;2022-07-23T14:59:53;98180;;;24.8;90.3
27358;BME280;14831;50.474;7.616;2022-07-23T15:04:54;98180;;;24.8;89.4
27358;BME280;14831;50.474;7.616;2022-07-23T15:09:53;98170;;;25.0;90.2
27358;BME280;14831;50.474;7.616;2022-07-23T15:14:53;98170;;;24.8;89.7
27358;BME280;14831;50.474;7.616;2022-07-23T15:19:53;98170;;;24.7;88.7
27358;BME280;14831;50.474;7.616;2022-07-23T15:24:53;98170;;;24.4;90.3
27358;BME280;14831;50.474;7.616;2022-07-23T15:29:53;98170;;;24.5;90.3
27358;BME280;14831;50.474;7.616;2022-07-23T15:34:53;98170;;;24.3;90.2
27358;BME280;14831;50.474;7.616;2022-07-23T15:39:53;98170;;;24.3;90.5
27358;BME280;14831;50.474;7.616;2022-07-23T15:44:53;98170;;;24.3;90.4
27358;BME280;14831;50.474;7.616;2022-07-23T15:49:53;98170;;;24.2;90.7
27358;BME280;14831;50.474;7.616;2022-07-23T15:54:53;98170;;;24.2;90.9
27358;BME280;14831;50.474;7.616;2022-07-23T15:59:53;98180;;;24.3;90.6
27358;BME280;14831;50.474;7.616;2022-07-23T16:04:53;98180;;;24.7;90.2
27358;BME280;14831;50.474;7.616;2022-07-23T16:09:54;98180;;;24.4;90.2
27358;BME280;14831;50.474;7.616;2022-07-23T16:14:53;98180;;;24.3;90.2
27358;BME280;14831;50.474;7.616;2022-07-23T16:19:53;98180;;;24.1;90.2
27358;BME280;14831;50.474;7.616;2022-07-23T16:24:53;98190;;;24.3;89.5
27358;BME280;14831;50.474;7.616;2022-07-23T16:29:53;98180;;;24.3;89.4
27358;BME280;14831;50.474;7.616;2022-07-23T16:34:53;98180;;;24.3;87.5
27358;BME280;14831;50.474;7.616;2022-07-23T16:39:53;98180;;;24.3;88.4
27358;BME280;14831;50.474;7.616;2022-07-23T16:44:53;98190;;;24.3;88.5
27358;BME280;14831;50.474;7.616;2022-07-23T16:49:53;98190;;;24.0;90.0
27358;BME280;14831;50.474;7.616;2022-07-23T16:54:53;98200;;;23.9;91.0
27358;BME280;14831;50.474;7.616;2022-07-23T16:59:53;98200;;;23.8;90.5
27358;BME280;14831;50.474;7.616;2022-07-23T17:04:53;98200;;;23.7;90.5
27358;BME280;14831;50.474;7.616;2022-07-23T17:09:53;98200;;;23.6;91.1
27358;BME280;14831;50.474;7.616;2022-07-23T17:14:53;98200;;;23.6;91.1
27358;BME280;14831;50.474;7.616;2022-07-23T17:19:53;98210;;;23.4;91.0
27358;BME280;14831;50.474;7.616;2022-07-23T17:24:53;98210;;;23.5;91.2
27358;BME280;14831;50.474;7.616;2022-07-23T17:29:53;98210;;;23.4;90.9
27358;BME280;14831;50.474;7.616;2022-07-23T17:34:53;98210;;;23.3;91.1
27358;BME280;14831;50.474;7.616;2022-07-23T17:39:53;98210;;;23.4;91.4
27358;BME280;14831;50.474;7.616;2022-07-23T17:44:53;98210;;;23.3;91.4
27358;BME280;14831;50.474;7.616;2022-07-23T17:49:53;98210;;;23.2;91.4
27358;BME280;14831;50.474;7.616;2022-07-23T17:54:53;98210;;;23.2;91.2
27358;BME280;14831;50.474;7.616;2022-07-23T17:59:53;98210;;;23.1;91.2
27358;BME280;14831;50.474;7.616;2022-07-23T18:04:53;98220;;;23.1;91.6
27358;BME280;14831;50.474;7.616;2022-07-23T18:09:53;98220;;;23.2;91.9
27358;BME280;14831;50.474;7.616;2022-07-23T18:14:53;98220;;;23.1;91.8
27358;BME280;14831;50.474;7.616;2022-07-23T18:19:54;98220;;;23.1;91.7
27358;BME280;14831;50.474;7.616;2022-07-23T18:24:53;98220;;;23.1;91.6
27358;BME280;14831;50.474;7.616;2022-07-23T18:29:54;98230;;;23.0;91.8
27358;BME280;14831;50.474;7.616;2022-07-23T18:34:54;98230;;;22.9;92.1
27358;BME280;14831;50.474;7.616;2022-07-23T18:39:53;98230;;;22.8;92.4
27358;BME280;14831;50.474;7.616;2022-07-23T18:44:53;98240;;;22.7;92.8
27358;BME280;14831;50.474;7.616;2022-07-23T18:49:54;98240;;;22.6;93.0
27358;BME280;14831;50.474;7.616;2022-07-23T18:54:53;98250;;;22.4;93.5
27358;BME280;14831;50.474;7.616;2022-07-23T18:59:53;98250;;;22.2;93.6
27358;BME280;14831;50.474;7.616;2022-07-23T19:04:53;98260;;;22.0;94.1
27358;BME280;14831;50.474;7.616;2022-07-23T19:09:53;98260;;;21.8;94.3
27358;BME280;14831;50.474;7.616;2022-07-23T19:14:53;98270;;;21.7;94.2
27358;BME280;14831;50.474;7.616;2022-07-23T19:19:54;98270;;;21.5;94.7
27358;BME280;14831;50.474;7.616;2022-07-23T19:24:53;98270;;;21.3;95.0
27358;BME280;14831;50.474;7.616;2022-07-23T19:29:53;98280;;;21.1;95.2
27358;BME280;14831;50.474;7.616;2022-07-23T19:34:53;98290;;;21.1;94.9
27358;BME280;14831;50.474;7.616;2022-07-23T19:39:53;98300;;;21.3;94.7
27358;BME280;14831;50.474;7.616;2022-07-23T19:44:53;98300;;;21.2;94.7
27358;BME280;14831;50.474;7.616;2022-07-23T19:49:53;98300;;;21.1;95.0
27358;BME280;14831;50.474;7.616;2022-07-23T19:54:53;98310;;;21.0;95.2
27358;BME280;14831;50.474;7.616;2022-07-23T19:59:54;98310;;;20.7;95.5
27358;BME280;14831;50.474;7.616;2022-07-23T20:04:53;98310;;;20.5;95.8
27358;BME280;14831;50.474;7.616;2022-07-23T20:09:54;98310;;;20.4;95.8
27358;BME280;14831;50.474;7.616;2022-07-23T20:14:53;98310;;;20.3;96.4
27358;BME280;14831;50.474;7.616;2022-07-23T20:19:54;98310;;;20.2;96.6
27358;BME280;14831;50.474;7.616;2022-07-23T20:24:53;98320;;;20.1;96.4
27358;BME280;14831;50.474;7.616;2022-07-23T20:29:54;98320;;;20.1;96.5
27358;BME280;14831;50.474;7.616;2022-07-23T20:34:53;98320;;;20.0;96.8
27358;BME280;14831;50.474;7.616;2022-07-23T20:39:54;98330;;;19.9;96.9
27358;BME280;14831;50.474;7.616;2022-07-23T20:44:53;98340;;;19.9;97.1
27358;BME280;14831;50.474;7.616;2022-07-23T20:49:53;98340;;;19.7;97.5
27358;BME280;14831;50.474;7.616;2022-07-23T20:54:53;98340;;;19.5;97.8
27358;BME280;14831;50.474;7.616;2022-07-23T20:59:53;98340;;;19.4;98.0
27358;BME280;14831;50.474;7.616;2022-07-23T21:04:53;98340;;;19.2;98.0
27358;BME280;14831;50.474;7.616;2022-07-23T21:09:54;98350;;;19.2;98.0
27358;BME280;14831;50.474;7.616;2022-07-23T21:14:53;98360;;;18.9;98.9
27358;BME280;14831;50.474;7.616;2022-07-23T21:19:54;98360;;;18.7;99.5
27358;BME280;14831;50.474;7.616;2022-07-23T21:24:53;98360;;;18.7;99.3
27358;BME280;14831;50.474;7.616;2022-07-23T21:29:53;98360;;;18.7;99.4
27358;BME280;14831;50.474;7.616;2022-07-23T21:34:53;98360;;;18.6;99.8
27358;BME280;14831;50.474;7.616;2022-07-23T21:39:53;98360;;;18.5;99.9
27358;BME280;14831;50.474;7.616;2022-07-23T21:44:53;98370;;;18.6;99.9
27358;BME280;14831;50.474;7.616;2022-07-23T21:49:53;98380;;;18.7;99.8
27358;BME280;14831;50.474;7.616;2022-07-23T21:54:53;98370;;;18.7;99.7
27358;BME280;14831;50.474;7.616;2022-07-23T21:59:53;98380;;;18.8;99.7
27358;BME280;14831;50.474;7.616;2022-07-23T22:04:53;98380;;;18.7;99.9
27358;BME280;14831;50.474;7.616;2022-07-23T22:09:53;98380;;;18.6;99.9
27358;BME280;14831;50.474;7.616;2022-07-23T22:14:53;98390;;;18.7;99.8
27358;BME280;14831;50.474;7.616;2022-07-23T22:19:53;98390;;;18.5;99.9
27358;BME280;14831;50.474;7.616;2022-07-23T22:24:53;98390;;;18.3;99.9
27358;BME280;14831;50.474;7.616;2022-07-23T22:29:53;98380;;;18.2;99.9
27358;BME280;14831;50.474;7.616;2022-07-23T22:34:53;98380;;;18.5;99.9
27358;BME280;14831;50.474;7.616;2022-07-23T22:39:53;98390;;;18.4;99.9
27358;BME280;14831;50.474;7.616;2022-07-23T22:44:53;98400;;;17.7;99.9
27358;BME280;14831;50.474;7.616;2022-07-23T22:49:53;98390;;;16.9;99.9
27358;BME280;14831;50.474;7.616;2022-07-23T22:54:53;98390;;;16.9;99.9
27358;BME280;14831;50.474;7.616;2022-07-23T22:59:53;98390;;;17.3;99.9
27358;BME280;14831;50.474;7.616;2022-07-23T23:04:53;98390;;;17.5;99.9
27358;BME280;14831;50.474;7.616;2022-07-23T23:09:53;98390;;;17.2;99.9
27358;BME280;14831;50.474;7.616;2022-07-23T23:14:53;98380;;;17.0;99.9
27358;BME280;14831;50.474;7.616;2022-07-23T23:19:53;98390;;;17.0;99.9
27358;BME280;14831;50.474;7.616;2022-07-23T23:24:53;98390;;;16.7;99.9
27358;BME280;14831;50.474;7.616;2022-07-23T23:29:53;98390;;;16.2;99.9
27358;BME280;14831;50.474;7.616;2022-07-23T23:34:53;98390;;;16.1;99.9
27358;BME280;14831;50.474;7.616;2022-07-23T23:39:53;98390;;;16.1;99.9
27358;BME280;14831;50.474;7.616;2022-07-23T23:44:53;98380;;;15.9;99.9
27358;BME280;14831;50.474;7.616;2022-07-23T23:49:53;98390;;;15.8;99.9
27358;BME280;14831;50.474;7.616;2022-07-23T23:54:53;98390;;;15.6;99.9
27358;BME280;14831;50.474;7.616;2022-07-23T23:59:53;98390;;;15.5;99.9
